createdAt,value
2016-04-25T00:00:50.200Z,1004.19
2016-04-25T00:01:50.172Z,1004.22
2016-04-25T00:02:50.158Z,1004.23
2016-04-25T00:03:50.129Z,1004.22
2016-04-25T00:04:50.116Z,1004.21
2016-04-25T00:05:50.089Z,1004.22
2016-04-25T00:06:50.075Z,1004.18
2016-04-25T00:07:50.046Z,1004.2
2016-04-25T00:08:50.049Z,1004.17
2016-04-25T00:09:50.004Z,1004.17
2016-04-25T00:10:49.993Z,1004.15
2016-04-25T00:11:49.980Z,1004.15
2016-04-25T00:12:50.123Z,1004.16
2016-04-25T00:13:49.922Z,1004.15
2016-04-25T00:14:49.909Z,1004.11
2016-04-25T00:15:49.896Z,1004.14
2016-04-25T00:16:49.868Z,1004.14
2016-04-25T00:17:49.855Z,1004.13
2016-04-25T00:18:49.826Z,1004.13
2016-04-25T00:19:49.813Z,1004.15
2016-04-25T00:20:49.784Z,1004.12
2016-04-25T00:21:49.788Z,1004.17
2016-04-25T00:22:49.748Z,1004.12
2016-04-25T00:23:49.720Z,1004.08
2016-04-25T00:24:49.707Z,1004.08
2016-04-25T00:25:49.695Z,1004.08
2016-04-25T00:26:49.665Z,1004.06
2016-04-25T00:27:50.262Z,1004.04
2016-04-25T00:28:49.625Z,1004
2016-04-25T00:29:49.611Z,1004.03
2016-04-25T00:30:49.584Z,1004.05
2016-04-25T00:31:49.570Z,1004.07
2016-04-25T00:32:49.542Z,1004.01
2016-04-25T00:33:49.529Z,1004.02
2016-04-25T00:34:49.500Z,1004.04
2016-04-25T00:35:49.487Z,1004.04
2016-04-25T00:36:49.458Z,1004.04
2016-04-25T00:37:49.462Z,1004.05
2016-04-25T00:38:49.417Z,1004.02
2016-04-25T00:39:49.405Z,1004.01
2016-04-25T00:40:49.375Z,1004.01
2016-04-25T00:41:49.363Z,1003.95
2016-04-25T00:42:49.787Z,1004.01
2016-04-25T00:43:49.322Z,1003.96
2016-04-25T00:44:49.324Z,1004.01
2016-04-25T00:45:49.280Z,1003.98
2016-04-25T00:46:49.266Z,1004.02
2016-04-25T00:47:49.239Z,1004.03
2016-04-25T00:48:49.241Z,1004.04
2016-04-25T00:49:49.197Z,1004
2016-04-25T00:50:49.184Z,1003.99
2016-04-25T00:51:49.155Z,1003.97
2016-04-25T00:52:49.142Z,1003.99
2016-04-25T00:53:49.114Z,1003.98
2016-04-25T00:54:49.101Z,1004
2016-04-25T00:55:49.073Z,1003.97
2016-04-25T00:56:49.059Z,1003.95
2016-04-25T00:57:49.032Z,1003.94
2016-04-25T00:58:49.018Z,1003.94
2016-04-25T00:59:49.005Z,1003.91
2016-04-25T01:00:48.992Z,1003.93
2016-04-25T01:01:48.963Z,1003.89
2016-04-25T01:02:48.934Z,1003.94
2016-04-25T01:03:48.923Z,1003.91
2016-04-25T01:04:48.893Z,1003.89
2016-04-25T01:05:48.881Z,1003.92
2016-04-25T01:06:48.867Z,1003.94
2016-04-25T01:07:48.839Z,1003.95
2016-04-25T01:08:48.811Z,1003.89
2016-04-25T01:09:48.798Z,1003.91
2016-04-25T01:10:48.784Z,1003.91
2016-04-25T01:11:48.755Z,1003.9
2016-04-25T01:12:48.727Z,1003.92
2016-04-25T01:13:48.714Z,1003.85
2016-04-25T01:14:48.686Z,1003.89
2016-04-25T01:15:48.672Z,1003.84
2016-04-25T01:16:48.644Z,1003.84
2016-04-25T01:17:48.632Z,1003.83
2016-04-25T01:18:48.603Z,1003.83
2016-04-25T01:19:48.590Z,1003.8
2016-04-25T01:20:48.577Z,1003.82
2016-04-25T01:21:48.548Z,1003.8
2016-04-25T01:22:48.521Z,1003.78
2016-04-25T01:23:48.507Z,1003.85
2016-04-25T01:24:48.493Z,1003.81
2016-04-25T01:25:48.465Z,1003.81
2016-04-25T01:26:48.452Z,1003.85
2016-04-25T01:27:49.174Z,1003.84
2016-04-25T01:28:48.412Z,1003.81
2016-04-25T01:29:48.382Z,1003.84
2016-04-25T01:30:48.370Z,1003.78
2016-04-25T01:31:48.341Z,1003.78
2016-04-25T01:32:48.328Z,1003.81
2016-04-25T01:33:48.300Z,1003.79
2016-04-25T01:34:48.287Z,1003.79
2016-04-25T01:35:48.258Z,1003.77
2016-04-25T01:36:48.245Z,1003.78
2016-04-25T01:37:48.217Z,1003.79
2016-04-25T01:38:48.203Z,1003.8
2016-04-25T01:39:48.175Z,1003.79
2016-04-25T01:40:48.162Z,1003.79
2016-04-25T01:41:48.134Z,1003.79
2016-04-25T01:42:48.120Z,1003.74
2016-04-25T01:43:48.091Z,1003.7
2016-04-25T01:44:48.079Z,1003.72
2016-04-25T01:45:48.050Z,1003.69
2016-04-25T01:46:48.038Z,1003.71
2016-04-25T01:47:48.009Z,1003.69
2016-04-25T01:48:47.996Z,1003.71
2016-04-25T01:49:47.968Z,1003.68
2016-04-25T01:50:47.955Z,1003.69
2016-04-25T01:51:47.926Z,1003.69
2016-04-25T01:52:47.913Z,1003.69
2016-04-25T01:53:47.885Z,1003.66
2016-04-25T01:54:47.872Z,1003.65
2016-04-25T01:55:47.843Z,1003.67
2016-04-25T01:56:47.830Z,1003.65
2016-04-25T01:57:47.817Z,1003.55
2016-04-25T01:58:47.788Z,1003.6
2016-04-25T01:59:47.776Z,1003.61
2016-04-25T02:00:47.747Z,1003.61
2016-04-25T02:01:47.735Z,1003.6
2016-04-25T02:02:47.706Z,1003.6
2016-04-25T02:03:47.693Z,1003.6
2016-04-25T02:04:47.664Z,1003.6
2016-04-25T02:05:47.651Z,1003.59
2016-04-25T02:06:47.623Z,1003.62
2016-04-25T02:07:47.610Z,1003.6
2016-04-25T02:08:47.628Z,1003.57
2016-04-25T02:09:47.568Z,1003.57
2016-04-25T02:10:47.539Z,1003.56
2016-04-25T02:11:47.528Z,1003.55
2016-04-25T02:12:47.998Z,1003.57
2016-04-25T02:13:47.485Z,1003.52
2016-04-25T02:14:47.456Z,1003.55
2016-04-25T02:15:47.444Z,1003.55
2016-04-25T02:16:47.416Z,1003.51
2016-04-25T02:17:47.402Z,1003.52
2016-04-25T02:18:47.374Z,1003.57
2016-04-25T02:19:47.360Z,1003.51
2016-04-25T02:20:47.332Z,1003.56
2016-04-25T02:21:47.320Z,1003.53
2016-04-25T02:22:47.291Z,1003.58
2016-04-25T02:23:47.277Z,1003.52
2016-04-25T02:24:47.249Z,1003.5
2016-04-25T02:25:47.235Z,1003.5
2016-04-25T02:26:47.224Z,1003.49
2016-04-25T02:27:47.196Z,1003.48
2016-04-25T02:28:47.165Z,1003.48
2016-04-25T02:29:47.154Z,1003.48
2016-04-25T02:30:47.124Z,1003.48
2016-04-25T02:31:47.112Z,1003.44
2016-04-25T02:32:47.084Z,1003.45
2016-04-25T02:33:47.071Z,1003.47
2016-04-25T02:34:47.043Z,1003.45
2016-04-25T02:35:47.029Z,1003.43
2016-04-25T02:36:47.015Z,1003.47
2016-04-25T02:37:46.987Z,1003.51
2016-04-25T02:38:46.974Z,1003.52
2016-04-25T02:39:46.945Z,1003.5
2016-04-25T02:40:46.934Z,1003.48
2016-04-25T02:41:46.904Z,1003.45
2016-04-25T02:42:47.329Z,1003.47
2016-04-25T02:43:46.863Z,1003.46
2016-04-25T02:44:46.850Z,1003.45
2016-04-25T02:45:46.837Z,1003.45
2016-04-25T02:46:46.809Z,1003.47
2016-04-25T02:47:46.780Z,1003.48
2016-04-25T02:48:46.767Z,1003.45
2016-04-25T02:49:46.739Z,1003.41
2016-04-25T02:50:46.741Z,1003.42
2016-04-25T02:51:46.697Z,1003.4
2016-04-25T02:52:46.684Z,1003.38
2016-04-25T02:53:46.655Z,1003.4
2016-04-25T02:54:46.643Z,1003.32
2016-04-25T02:55:46.629Z,1003.38
2016-04-25T02:56:46.602Z,1003.35
2016-04-25T02:57:46.572Z,1003.32
2016-04-25T02:58:46.560Z,1003.33
2016-04-25T02:59:46.547Z,1003.32
2016-04-25T03:00:46.518Z,1003.31
2016-04-25T03:01:46.490Z,1003.3
2016-04-25T03:02:46.476Z,1003.27
2016-04-25T03:03:46.464Z,1003.26
2016-04-25T03:04:46.435Z,1003.27
2016-04-25T03:05:46.422Z,1003.24
2016-04-25T03:06:46.457Z,1003.27
2016-04-25T03:07:46.381Z,1003.23
2016-04-25T03:08:46.351Z,1003.21
2016-04-25T03:09:46.339Z,1003.19
2016-04-25T03:10:46.311Z,1003.18
2016-04-25T03:11:46.298Z,1003.2
2016-04-25T03:12:46.269Z,1003.22
2016-04-25T03:13:46.256Z,1003.17
2016-04-25T03:14:46.243Z,1003.16
2016-04-25T03:15:46.214Z,1003.15
2016-04-25T03:16:46.186Z,1003.16
2016-04-25T03:17:46.376Z,1003.15
2016-04-25T03:18:46.160Z,1003.13
2016-04-25T03:19:46.132Z,1003.16
2016-04-25T03:20:46.103Z,1003.15
2016-04-25T03:21:46.090Z,1003.17
2016-04-25T03:22:46.061Z,1003.17
2016-04-25T03:23:46.049Z,1003.14
2016-04-25T03:24:46.019Z,1003.16
2016-04-25T03:25:46.007Z,1003.12
2016-04-25T03:26:45.979Z,1003.13
2016-04-25T03:27:45.966Z,1003.11
2016-04-25T03:28:45.937Z,1003.14
2016-04-25T03:29:45.924Z,1003.07
2016-04-25T03:30:45.895Z,1003.14
2016-04-25T03:31:45.882Z,1003.1
2016-04-25T03:32:45.855Z,1003.11
2016-04-25T03:33:45.840Z,1003.12
2016-04-25T03:34:45.813Z,1003.13
2016-04-25T03:35:45.799Z,1003.1
2016-04-25T03:36:45.787Z,1003.11
2016-04-25T03:37:45.759Z,1003.05
2016-04-25T03:38:45.745Z,1003.05
2016-04-25T03:39:45.717Z,1003.07
2016-04-25T03:40:45.687Z,1003.06
2016-04-25T03:41:45.675Z,1003.02
2016-04-25T03:42:45.662Z,1003.03
2016-04-25T03:43:45.634Z,1003.03
2016-04-25T03:44:45.605Z,1003.01
2016-04-25T03:45:45.592Z,1003
2016-04-25T03:46:45.579Z,1003
2016-04-25T03:47:45.551Z,1003
2016-04-25T03:48:45.538Z,1002.95
2016-04-25T03:49:45.509Z,1002.95
2016-04-25T03:50:45.497Z,1002.94
2016-04-25T03:51:45.467Z,1002.94
2016-04-25T03:52:45.439Z,1003
2016-04-25T03:53:45.427Z,1002.94
2016-04-25T03:54:45.397Z,1002.96
2016-04-25T03:55:45.385Z,1002.94
2016-04-25T03:56:45.356Z,1002.91
2016-04-25T03:57:45.344Z,1002.92
2016-04-25T03:58:45.315Z,1002.95
2016-04-25T03:59:45.301Z,1002.97
2016-04-25T04:00:45.273Z,1002.94
2016-04-25T04:01:45.261Z,1002.95
2016-04-25T04:02:45.247Z,1002.93
2016-04-25T04:03:45.218Z,1002.91
2016-04-25T04:04:45.206Z,1002.94
2016-04-25T04:05:45.177Z,1002.95
2016-04-25T04:06:45.165Z,1002.87
2016-04-25T04:07:45.135Z,1002.92
2016-04-25T04:08:45.123Z,1002.97
2016-04-25T04:09:45.095Z,1002.92
2016-04-25T04:10:45.098Z,1002.92
2016-04-25T04:11:45.053Z,1002.94
2016-04-25T04:12:45.039Z,1002.97
2016-04-25T04:13:45.026Z,1002.93
2016-04-25T04:14:45.015Z,1002.94
2016-04-25T04:15:44.970Z,1002.96
2016-04-25T04:16:44.957Z,1002.94
2016-04-25T04:17:44.928Z,1002.94
2016-04-25T04:18:44.915Z,1002.84
2016-04-25T04:19:44.903Z,1002.87
2016-04-25T04:20:44.874Z,1002.88
2016-04-25T04:21:44.846Z,1002.91
2016-04-25T04:22:44.833Z,1002.9
2016-04-25T04:23:44.820Z,1002.87
2016-04-25T04:24:44.791Z,1002.89
2016-04-25T04:25:44.778Z,1002.89
2016-04-25T04:26:44.749Z,1002.91
2016-04-25T04:27:44.737Z,1002.89
2016-04-25T04:28:45.177Z,1002.9
2016-04-25T04:29:44.695Z,1002.92
2016-04-25T04:30:44.666Z,1002.9
2016-04-25T04:31:44.654Z,1002.91
2016-04-25T04:32:44.624Z,1002.91
2016-04-25T04:33:44.613Z,1002.91
2016-04-25T04:34:44.583Z,1002.92
2016-04-25T04:35:44.571Z,1002.9
2016-04-25T04:36:44.542Z,1002.89
2016-04-25T04:37:44.529Z,1002.88
2016-04-25T04:38:44.516Z,1002.88
2016-04-25T04:39:44.487Z,1002.87
2016-04-25T04:40:44.459Z,1002.89
2016-04-25T04:41:44.446Z,1002.88
2016-04-25T04:42:44.418Z,1002.87
2016-04-25T04:43:44.404Z,1002.9
2016-04-25T04:44:44.392Z,1002.91
2016-04-25T04:45:44.362Z,1002.92
2016-04-25T04:46:44.351Z,1002.92
2016-04-25T04:47:44.322Z,1002.87
2016-04-25T04:48:44.309Z,1002.9
2016-04-25T04:49:44.280Z,1002.88
2016-04-25T04:50:44.267Z,1002.9
2016-04-25T04:51:44.286Z,1002.87
2016-04-25T04:52:44.226Z,1002.84
2016-04-25T04:53:44.213Z,1002.84
2016-04-25T04:54:44.200Z,1002.85
2016-04-25T04:55:44.155Z,1002.83
2016-04-25T04:56:44.142Z,1002.78
2016-04-25T04:57:44.130Z,1002.77
2016-04-25T04:58:44.194Z,1002.77
2016-04-25T04:59:44.088Z,1002.72
2016-04-25T05:00:44.060Z,1002.77
2016-04-25T05:01:44.047Z,1002.71
2016-04-25T05:02:44.018Z,1002.77
2016-04-25T05:03:44.005Z,1002.75
2016-04-25T05:04:43.977Z,1002.73
2016-04-25T05:05:43.964Z,1002.72
2016-04-25T05:06:43.935Z,1002.74
2016-04-25T05:07:43.922Z,1002.74
2016-04-25T05:08:43.893Z,1002.72
2016-04-25T05:09:43.881Z,1002.73
2016-04-25T05:10:43.852Z,1002.75
2016-04-25T05:11:43.840Z,1002.71
2016-04-25T05:12:43.846Z,1002.71
2016-04-25T05:13:43.877Z,1002.69
2016-04-25T05:14:43.894Z,1002.69
2016-04-25T05:15:43.924Z,1002.7
2016-04-25T05:16:43.940Z,1002.65
2016-04-25T05:17:43.948Z,1002.7
2016-04-25T05:18:43.951Z,1002.69
2016-04-25T05:19:43.938Z,1002.67
2016-04-25T05:20:43.942Z,1002.64
2016-04-25T05:21:43.928Z,1002.62
2016-04-25T05:22:43.923Z,1002.59
2016-04-25T05:23:43.916Z,1002.65
2016-04-25T05:24:43.894Z,1002.61
2016-04-25T05:25:43.871Z,1002.63
2016-04-25T05:26:43.863Z,1002.61
2016-04-25T05:27:43.837Z,1002.66
2016-04-25T05:28:44.295Z,1002.66
2016-04-25T05:29:43.814Z,1002.63
2016-04-25T05:30:43.789Z,1002.65
2016-04-25T05:31:43.778Z,1002.65
2016-04-25T05:32:43.749Z,1002.62
2016-04-25T05:33:43.738Z,1002.58
2016-04-25T05:34:43.709Z,1002.62
2016-04-25T05:35:43.698Z,1002.59
2016-04-25T05:36:43.685Z,1002.6
2016-04-25T05:37:43.658Z,1002.58
2016-04-25T05:38:43.644Z,1002.55
2016-04-25T05:39:43.617Z,1002.57
2016-04-25T05:40:43.604Z,1002.62
2016-04-25T05:41:43.576Z,1002.58
2016-04-25T05:42:43.563Z,1002.64
2016-04-25T05:43:43.535Z,1002.65
2016-04-25T05:44:43.522Z,1002.62
2016-04-25T05:45:43.508Z,1002.63
2016-04-25T05:46:43.480Z,1002.66
2016-04-25T05:47:43.467Z,1002.62
2016-04-25T05:48:43.439Z,1002.64
2016-04-25T05:49:43.426Z,1002.67
2016-04-25T05:50:43.413Z,1002.65
2016-04-25T05:51:43.399Z,1002.65
2016-04-25T05:52:43.372Z,1002.68
2016-04-25T05:53:43.343Z,1002.68
2016-04-25T05:54:43.329Z,1002.68
2016-04-25T05:55:43.317Z,1002.63
2016-04-25T05:56:43.335Z,1002.63
2016-04-25T05:57:43.275Z,1002.71
2016-04-25T05:58:43.263Z,1002.7
2016-04-25T05:59:43.234Z,1002.61
2016-04-25T06:00:43.221Z,1002.65
2016-04-25T06:01:43.192Z,1002.65
2016-04-25T06:02:43.180Z,1002.7
2016-04-25T06:03:43.166Z,1002.71
2016-04-25T06:04:43.137Z,1002.65
2016-04-25T06:05:43.126Z,1002.63
2016-04-25T06:06:43.112Z,1002.61
2016-04-25T06:07:43.084Z,1002.68
2016-04-25T06:08:43.071Z,1002.65
2016-04-25T06:09:43.042Z,1002.67
2016-04-25T06:10:43.045Z,1002.64
2016-04-25T06:11:43.016Z,1002.61
2016-04-25T06:12:42.987Z,1002.64
2016-04-25T06:13:43.162Z,1002.63
2016-04-25T06:14:42.962Z,1002.63
2016-04-25T06:15:42.933Z,1002.6
2016-04-25T06:16:43.123Z,1002.61
2016-04-25T06:17:42.892Z,1002.55
2016-04-25T06:18:42.878Z,1002.61
2016-04-25T06:19:42.866Z,1002.59
2016-04-25T06:20:42.837Z,1002.58
2016-04-25T06:21:42.824Z,1002.61
2016-04-25T06:22:42.812Z,1002.66
2016-04-25T06:23:42.784Z,1002.63
2016-04-25T06:24:42.770Z,1002.69
2016-04-25T06:25:42.742Z,1002.63
2016-04-25T06:26:42.729Z,1002.61
2016-04-25T06:27:42.701Z,1002.58
2016-04-25T06:28:42.688Z,1002.56
2016-04-25T06:29:42.675Z,1002.55
2016-04-25T06:30:42.647Z,1002.55
2016-04-25T06:31:42.633Z,1002.53
2016-04-25T06:32:42.620Z,1002.51
2016-04-25T06:33:42.592Z,1002.54
2016-04-25T06:34:42.579Z,1002.48
2016-04-25T06:35:42.551Z,1002.51
2016-04-25T06:36:42.538Z,1002.43
2016-04-25T06:37:42.524Z,1002.42
2016-04-25T06:38:42.497Z,1002.38
2016-04-25T06:39:42.482Z,1002.42
2016-04-25T06:40:42.471Z,1002.31
2016-04-25T06:41:42.441Z,1002.33
2016-04-25T06:42:42.429Z,1002.33
2016-04-25T06:43:42.399Z,1002.3
2016-04-25T06:44:42.763Z,1002.28
2016-04-25T06:45:42.374Z,1002.25
2016-04-25T06:46:42.346Z,1002.28
2016-04-25T06:47:42.332Z,1002.21
2016-04-25T06:48:42.321Z,1002.21
2016-04-25T06:49:42.290Z,1002.23
2016-04-25T06:50:42.279Z,1002.22
2016-04-25T06:51:42.250Z,1002.18
2016-04-25T06:52:42.237Z,1002.15
2016-04-25T06:53:42.223Z,1002.14
2016-04-25T06:54:42.196Z,1002.11
2016-04-25T06:55:42.182Z,1002.14
2016-04-25T06:56:42.170Z,1002.12
2016-04-25T06:57:42.141Z,1002.09
2016-04-25T06:58:42.284Z,1002.11
2016-04-25T06:59:42.834Z,1002.05
2016-04-25T07:00:42.103Z,1002.07
2016-04-25T07:01:42.073Z,1002.09
2016-04-25T07:02:42.060Z,1002.04
2016-04-25T07:03:42.063Z,1002
2016-04-25T07:04:42.050Z,1002.03
2016-04-25T07:05:42.038Z,1001.91
2016-04-25T07:06:42.009Z,1001.98
2016-04-25T07:07:41.980Z,1001.97
2016-04-25T07:08:41.999Z,1001.95
2016-04-25T07:09:42.049Z,1001.94
2016-04-25T07:10:41.926Z,1001.88
2016-04-25T07:11:41.897Z,1001.91
2016-04-25T07:12:41.869Z,1001.96
2016-04-25T07:13:41.855Z,1001.92
2016-04-25T07:14:41.843Z,1001.91
2016-04-25T07:15:41.815Z,1001.9
2016-04-25T07:16:41.801Z,1001.85
2016-04-25T07:17:41.788Z,1001.91
2016-04-25T07:18:41.776Z,1001.88
2016-04-25T07:19:41.747Z,1001.88
2016-04-25T07:20:41.734Z,1001.83
2016-04-25T07:21:41.706Z,1001.81
2016-04-25T07:22:41.708Z,1001.83
2016-04-25T07:23:41.679Z,1001.8
2016-04-25T07:24:41.667Z,1001.84
2016-04-25T07:25:41.654Z,1001.87
2016-04-25T07:26:41.625Z,1001.8
2016-04-25T07:27:41.612Z,1001.8
2016-04-25T07:28:41.584Z,1001.87
2016-04-25T07:29:41.570Z,1001.81
2016-04-25T07:30:41.558Z,1001.8
2016-04-25T07:31:41.545Z,1001.79
2016-04-25T07:32:41.517Z,1001.8
2016-04-25T07:33:41.503Z,1001.79
2016-04-25T07:34:41.491Z,1001.8
2016-04-25T07:35:41.462Z,1001.77
2016-04-25T07:36:41.449Z,1001.77
2016-04-25T07:37:41.436Z,1001.74
2016-04-25T07:38:41.422Z,1001.72
2016-04-25T07:39:41.395Z,1001.7
2016-04-25T07:40:41.382Z,1001.76
2016-04-25T07:41:41.369Z,1001.66
2016-04-25T07:42:41.355Z,1001.79
2016-04-25T07:43:41.358Z,1001.7
2016-04-25T07:44:41.313Z,1001.74
2016-04-25T07:45:41.302Z,1001.73
2016-04-25T07:46:41.288Z,1001.7
2016-04-25T07:47:41.260Z,1001.69
2016-04-25T07:48:41.246Z,1001.66
2016-04-25T07:49:41.234Z,1001.67
2016-04-25T07:50:41.205Z,1001.68
2016-04-25T07:51:41.192Z,1001.7
2016-04-25T07:52:41.180Z,1001.64
2016-04-25T07:53:41.167Z,1001.63
2016-04-25T07:54:41.154Z,1001.63
2016-04-25T07:55:41.126Z,1001.6
2016-04-25T07:56:41.112Z,1001.63
2016-04-25T07:57:41.098Z,1001.64
2016-04-25T07:58:41.087Z,1001.65
2016-04-25T07:59:41.073Z,1001.63
2016-04-25T08:00:41.061Z,1001.6
2016-04-25T08:01:41.032Z,1001.55
2016-04-25T08:02:41.019Z,1001.61
2016-04-25T08:03:41.006Z,1001.63
2016-04-25T08:04:40.978Z,1001.55
2016-04-25T08:05:40.964Z,1001.55
2016-04-25T08:06:40.952Z,1001.55
2016-04-25T08:07:40.939Z,1001.52
2016-04-25T08:08:40.925Z,1001.5
2016-04-25T08:09:40.897Z,1001.48
2016-04-25T08:10:40.884Z,1001.46
2016-04-25T08:11:40.872Z,1001.48
2016-04-25T08:12:40.851Z,1001.48
2016-04-25T08:13:40.854Z,1001.44
2016-04-25T08:14:40.826Z,1001.38
2016-04-25T08:15:40.813Z,1001.47
2016-04-25T08:16:41.002Z,1001.41
2016-04-25T08:17:40.787Z,1001.41
2016-04-25T08:18:40.774Z,1001.41
2016-04-25T08:19:40.761Z,1001.46
2016-04-25T08:20:40.747Z,1001.39
2016-04-25T08:21:40.719Z,1001.44
2016-04-25T08:22:40.707Z,1001.39
2016-04-25T08:23:40.695Z,1001.28
2016-04-25T08:24:40.681Z,1001.34
2016-04-25T08:25:40.669Z,1001.27
2016-04-25T08:26:40.656Z,1001.27
2016-04-25T08:27:40.642Z,1001.48
2016-04-25T08:28:41.317Z,1001.27
2016-04-25T08:29:40.633Z,1001.32
2016-04-25T08:30:40.620Z,1001.24
2016-04-25T08:31:40.606Z,1001.21
2016-04-25T08:32:40.594Z,1001.24
2016-04-25T08:33:40.580Z,1001.25
2016-04-25T08:34:40.569Z,1001.2
2016-04-25T08:35:40.555Z,1001.18
2016-04-25T08:36:40.542Z,1001.21
2016-04-25T08:37:40.529Z,1001.18
2016-04-25T08:38:40.516Z,1001.16
2016-04-25T08:39:40.503Z,1001.11
2016-04-25T08:40:40.479Z,1001.11
2016-04-25T08:41:40.498Z,1001.13
2016-04-25T08:42:40.454Z,1001.09
2016-04-25T08:43:40.440Z,1001.07
2016-04-25T08:44:40.429Z,1001.11
2016-04-25T08:45:40.415Z,1001.05
2016-04-25T08:46:40.402Z,1001.11
2016-04-25T08:47:40.389Z,1001.08
2016-04-25T08:48:40.376Z,1001.07
2016-04-25T08:49:40.363Z,1001.05
2016-04-25T08:50:40.350Z,1000.96
2016-04-25T08:51:40.337Z,1000.92
2016-04-25T08:52:40.325Z,1000.95
2016-04-25T08:53:40.327Z,1000.91
2016-04-25T08:54:40.298Z,1000.91
2016-04-25T08:55:40.301Z,1000.89
2016-04-25T08:56:40.288Z,1000.85
2016-04-25T08:57:40.275Z,1000.85
2016-04-25T08:58:40.278Z,1000.86
2016-04-25T08:59:40.250Z,1000.82
2016-04-25T09:00:40.221Z,1000.79
2016-04-25T09:01:40.224Z,1000.78
2016-04-25T09:02:40.210Z,1000.84
2016-04-25T09:03:40.197Z,1000.78
2016-04-25T09:04:40.185Z,1000.75
2016-04-25T09:05:40.172Z,1000.69
2016-04-25T09:06:40.158Z,1000.81
2016-04-25T09:07:40.130Z,1000.73
2016-04-25T09:08:40.118Z,1000.67
2016-04-25T09:09:40.105Z,1000.57
2016-04-25T09:10:40.091Z,1000.61
2016-04-25T09:11:40.079Z,1000.65
2016-04-25T09:12:40.065Z,1000.71
2016-04-25T09:13:40.271Z,1000.67
2016-04-25T09:14:40.055Z,1000.79
2016-04-25T09:15:40.042Z,1000.68
2016-04-25T09:16:40.033Z,1000.6
2016-04-25T09:17:40.021Z,1000.69
2016-04-25T09:18:40.008Z,1000.83
2016-04-25T09:19:39.994Z,1000.8
2016-04-25T09:20:39.997Z,1000.8
2016-04-25T09:21:39.969Z,1000.79
2016-04-25T09:22:39.956Z,1000.59
2016-04-25T09:23:39.958Z,1000.66
2016-04-25T09:24:39.946Z,1000.52
2016-04-25T09:25:39.932Z,1000.48
2016-04-25T09:26:39.935Z,1000.68
2016-04-25T09:27:39.923Z,1000.43
2016-04-25T09:28:39.926Z,1000.49
2016-04-25T09:29:40.428Z,1000.59
2016-04-25T09:30:39.899Z,1000.63
2016-04-25T09:31:39.886Z,1000.53
2016-04-25T09:32:39.874Z,1000.65
2016-04-25T09:33:39.860Z,1000.52
2016-04-25T09:34:39.862Z,1000.38
2016-04-25T09:35:39.850Z,1000.32
2016-04-25T09:36:39.837Z,1000.3
2016-04-25T09:37:39.840Z,1000.39
2016-04-25T09:38:39.827Z,1000.34
2016-04-25T09:39:39.814Z,1000.28
2016-04-25T09:40:39.817Z,1000.22
2016-04-25T09:41:39.803Z,1000.17
2016-04-25T09:42:39.791Z,1000.18
2016-04-25T09:43:39.794Z,1000.22
2016-04-25T09:44:41.280Z,1000.2
2016-04-25T09:45:39.783Z,1000.14
2016-04-25T09:46:39.755Z,1000.15
2016-04-25T09:47:39.758Z,1000.38
2016-04-25T09:48:39.744Z,1000.1
2016-04-25T09:49:39.732Z,1000.11
2016-04-25T09:50:39.719Z,1000.12
2016-04-25T09:51:39.705Z,1000.23
2016-04-25T09:52:39.693Z,1000.17
2016-04-25T09:53:39.695Z,1000.03
2016-04-25T09:54:39.682Z,999.97
2016-04-25T09:55:39.669Z,999.99
2016-04-25T09:56:39.657Z,1000.04
2016-04-25T09:57:39.643Z,1000.02
2016-04-25T09:58:39.631Z,999.97
2016-04-25T09:59:39.634Z,1000.03
2016-04-25T10:00:39.621Z,1000
2016-04-25T10:01:39.607Z,999.96
2016-04-25T10:02:39.595Z,999.92
2016-04-25T10:03:39.581Z,999.91
2016-04-25T10:04:39.568Z,999.87
2016-04-25T10:05:39.571Z,999.9
2016-04-25T10:06:39.559Z,999.81
2016-04-25T10:07:39.545Z,999.82
2016-04-25T10:08:39.533Z,999.79
2016-04-25T10:09:39.520Z,999.78
2016-04-25T10:10:39.507Z,999.79
2016-04-25T10:11:39.509Z,999.73
2016-04-25T10:12:39.496Z,999.81
2016-04-25T10:13:39.484Z,999.73
2016-04-25T10:14:39.659Z,999.74
2016-04-25T10:15:39.458Z,999.68
2016-04-25T10:16:39.664Z,999.67
2016-04-25T10:17:39.447Z,999.71
2016-04-25T10:18:39.435Z,999.7
2016-04-25T10:19:39.422Z,999.66
2016-04-25T10:20:39.425Z,999.7
2016-04-25T10:21:39.411Z,999.66
2016-04-25T10:22:39.398Z,999.6
2016-04-25T10:23:39.385Z,999.67
2016-04-25T10:24:39.388Z,999.62
2016-04-25T10:25:39.375Z,999.63
2016-04-25T10:26:39.363Z,999.61
2016-04-25T10:27:39.349Z,999.57
2016-04-25T10:28:39.758Z,999.59
2016-04-25T10:29:40.230Z,999.59
2016-04-25T10:30:39.327Z,999.5
2016-04-25T10:31:39.335Z,999.47
2016-04-25T10:32:39.337Z,999.47
2016-04-25T10:33:39.293Z,999.53
2016-04-25T10:34:39.303Z,999.45
2016-04-25T10:35:39.277Z,999.48
2016-04-25T10:36:39.264Z,999.45
2016-04-25T10:37:39.251Z,999.46
2016-04-25T10:38:39.254Z,999.4
2016-04-25T10:39:39.242Z,999.37
2016-04-25T10:40:39.229Z,999.36
2016-04-25T10:41:39.215Z,999.42
2016-04-25T10:42:39.217Z,999.34
2016-04-25T10:43:39.205Z,999.34
2016-04-25T10:44:39.192Z,999.3
2016-04-25T10:45:39.179Z,999.25
2016-04-25T10:46:39.166Z,999.29
2016-04-25T10:47:39.169Z,999.19
2016-04-25T10:48:39.156Z,999.26
2016-04-25T10:49:39.144Z,999.18
2016-04-25T10:50:39.130Z,999.28
2016-04-25T10:51:39.117Z,999.27
2016-04-25T10:52:39.104Z,999.24
2016-04-25T10:53:39.091Z,999.18
2016-04-25T10:54:39.093Z,999.24
2016-04-25T10:55:39.066Z,999.15
2016-04-25T10:56:39.052Z,999.15
2016-04-25T10:57:39.040Z,999.14
2016-04-25T10:58:39.042Z,999.11
2016-04-25T10:59:39.030Z,999.01
2016-04-25T11:00:39.016Z,999.12
2016-04-25T11:01:39.004Z,999.14
2016-04-25T11:02:38.990Z,999.09
2016-04-25T11:03:38.977Z,999.06
2016-04-25T11:04:38.965Z,998.95
2016-04-25T11:05:38.951Z,998.98
2016-04-25T11:06:38.939Z,999.06
2016-04-25T11:07:38.942Z,999.01
2016-04-25T11:08:38.929Z,998.92
2016-04-25T11:09:38.915Z,998.86
2016-04-25T11:10:38.918Z,998.86
2016-04-25T11:11:38.890Z,998.88
2016-04-25T11:12:38.892Z,998.81
2016-04-25T11:13:38.988Z,998.83
2016-04-25T11:14:39.242Z,998.83
2016-04-25T11:15:38.853Z,998.79
2016-04-25T11:16:38.856Z,998.79
2016-04-25T11:17:38.844Z,998.78
2016-04-25T11:18:38.831Z,998.71
2016-04-25T11:19:38.817Z,998.83
2016-04-25T11:20:38.805Z,998.75
2016-04-25T11:21:38.808Z,998.71
2016-04-25T11:22:38.794Z,998.67
2016-04-25T11:23:38.781Z,998.65
2016-04-25T11:24:38.768Z,998.7
2016-04-25T11:25:38.771Z,998.67
2016-04-25T11:26:38.758Z,998.58
2016-04-25T11:27:38.746Z,998.54
2016-04-25T11:28:39.045Z,998.5
2016-04-25T11:29:38.719Z,998.5
2016-04-25T11:30:38.707Z,998.51
2016-04-25T11:31:38.710Z,998.48
2016-04-25T11:32:38.696Z,998.46
2016-04-25T11:33:38.683Z,998.51
2016-04-25T11:34:38.670Z,998.49
2016-04-25T11:35:38.657Z,998.45
2016-04-25T11:36:38.645Z,998.49
2016-04-25T11:37:38.631Z,998.37
2016-04-25T11:38:38.634Z,998.42
2016-04-25T11:39:38.621Z,998.46
2016-04-25T11:40:38.608Z,998.33
2016-04-25T11:41:38.595Z,998.37
2016-04-25T11:42:38.582Z,998.4
2016-04-25T11:43:39.038Z,998.3
2016-04-25T11:44:38.556Z,998.3
2016-04-25T11:45:38.559Z,998.22
2016-04-25T11:46:38.547Z,998.18
2016-04-25T11:47:38.522Z,998.2
2016-04-25T11:48:38.514Z,998.17
2016-04-25T11:49:38.502Z,998.2
2016-04-25T11:50:38.489Z,998.24
2016-04-25T11:51:38.476Z,998.17
2016-04-25T11:52:38.468Z,998.18
2016-04-25T11:53:38.454Z,998.11
2016-04-25T11:54:38.442Z,998.18
2016-04-25T11:55:38.429Z,998.13
2016-04-25T11:56:38.416Z,998.11
2016-04-25T11:57:38.404Z,998.13
2016-04-25T11:58:38.390Z,998.14
2016-04-25T11:59:38.971Z,998.15
2016-04-25T12:00:38.364Z,998.05
2016-04-25T12:01:38.367Z,998.03
2016-04-25T12:02:38.354Z,998
2016-04-25T12:03:38.326Z,998.01
2016-04-25T12:04:38.312Z,997.98
2016-04-25T12:05:38.300Z,997.99
2016-04-25T12:06:38.286Z,997.93
2016-04-25T12:07:38.273Z,997.9
2016-04-25T12:08:38.261Z,997.99
2016-04-25T12:09:38.264Z,997.91
2016-04-25T12:10:38.235Z,997.87
2016-04-25T12:11:38.222Z,997.85
2016-04-25T12:12:38.209Z,997.98
2016-04-25T12:13:38.196Z,997.95